sensor_id;sensor_type;location;lat;lon;timestamp;pressure;altitude;pressure_sealevel;temperature;humidity
79221;BME280;72175;52.118;5.406;2023-09-30T00:02:19;102554.66;;;19.96;61.09
79221;BME280;72175;52.118;5.406;2023-09-30T00:04:46;102556.50;;;19.95;61.18
79221;BME280;72175;52.118;5.406;2023-09-30T00:07:13;102556.50;;;19.95;61.09
79221;BME280;72175;52.118;5.406;2023-09-30T00:09:40;102567.25;;;19.95;61.09
79221;BME280;72175;52.118;5.406;2023-09-30T00:12:10;102562.88;;;19.94;61.03
79221;BME280;72175;52.118;5.406;2023-09-30T00:14:37;102570.09;;;19.94;60.92
79221;BME280;72175;52.118;5.406;2023-09-30T00:17:04;102562.88;;;19.94;60.95
79221;BME280;72175;52.118;5.406;2023-09-30T00:19:30;102553.13;;;19.93;61.19
79221;BME280;72175;52.118;5.406;2023-09-30T00:21:59;102557.66;;;19.92;60.89
79221;BME280;72175;52.118;5.406;2023-09-30T00:24:26;102555.81;;;19.93;60.89
79221;BME280;72175;52.118;5.406;2023-09-30T00:26:53;102557.66;;;19.92;60.97
79221;BME280;72175;52.118;5.406;2023-09-30T00:29:20;102560.34;;;19.92;60.75
79221;BME280;72175;52.118;5.406;2023-09-30T00:31:47;102564.03;;;19.91;60.89
79221;BME280;72175;52.118;5.406;2023-09-30T00:34:14;102564.88;;;19.92;60.78
79221;BME280;72175;52.118;5.406;2023-09-30T00:36:40;102557.81;;;19.91;60.78
79221;BME280;72175;52.118;5.406;2023-09-30T00:39:07;102570.41;;;19.90;60.91
79221;BME280;72175;52.118;5.406;2023-09-30T00:41:34;102571.25;;;19.91;60.74
79221;BME280;72175;52.118;5.406;2023-09-30T00:44:01;102590.03;;;19.91;60.83
79221;BME280;72175;52.118;5.406;2023-09-30T00:46:32;102582.97;;;19.90;60.75
79221;BME280;72175;52.118;5.406;2023-09-30T00:49:01;102586.50;;;19.90;60.72
79221;BME280;72175;52.118;5.406;2023-09-30T00:51:30;102591.03;;;19.90;61.10
79221;BME280;72175;52.118;5.406;2023-09-30T00:53:59;102590.19;;;19.89;60.60
79221;BME280;72175;52.118;5.406;2023-09-30T00:56:27;102586.66;;;19.89;60.78
79221;BME280;72175;52.118;5.406;2023-09-30T00:58:55;102599.25;;;19.88;60.61
79221;BME280;72175;52.118;5.406;2023-09-30T01:01:22;102588.50;;;19.88;60.75
79221;BME280;72175;52.118;5.406;2023-09-30T01:03:49;102588.50;;;19.88;60.66
79221;BME280;72175;52.118;5.406;2023-09-30T01:06:16;102594.88;;;19.87;60.88
79221;BME280;72175;52.118;5.406;2023-09-30T01:08:42;102590.34;;;19.88;60.66
79221;BME280;72175;52.118;5.406;2023-09-30T01:11:09;102596.72;;;19.87;60.64
79221;BME280;72175;52.118;5.406;2023-09-30T01:13:37;102601.25;;;19.86;60.56
79221;BME280;72175;52.118;5.406;2023-09-30T01:16:09;102595.88;;;19.86;60.58
79221;BME280;72175;52.118;5.406;2023-09-30T01:18:37;102593.19;;;19.86;60.69
79221;BME280;72175;52.118;5.406;2023-09-30T01:21:10;102589.66;;;19.86;60.61
79221;BME280;72175;52.118;5.406;2023-09-30T01:23:37;102593.19;;;19.86;60.69
79221;BME280;72175;52.118;5.406;2023-09-30T01:26:11;102605.78;;;19.86;60.72
79221;BME280;72175;52.118;5.406;2023-09-30T01:28:41;102608.63;;;19.84;60.56
79221;BME280;72175;52.118;5.406;2023-09-30T01:31:08;102621.06;;;19.85;60.39
79221;BME280;72175;52.118;5.406;2023-09-30T01:33:34;102624.75;;;19.84;60.47
79221;BME280;72175;52.118;5.406;2023-09-30T01:36:01;102617.53;;;19.85;60.58
79221;BME280;72175;52.118;5.406;2023-09-30T01:38:28;102614.00;;;19.84;60.67
79221;BME280;72175;52.118;5.406;2023-09-30T01:40:54;102613.16;;;19.84;60.34
79221;BME280;72175;52.118;5.406;2023-09-30T01:43:25;102612.31;;;19.83;60.49
79221;BME280;72175;52.118;5.406;2023-09-30T01:45:52;102616.69;;;19.84;60.29
79221;BME280;72175;52.118;5.406;2023-09-30T01:48:19;102606.94;;;19.83;60.63
79221;BME280;72175;52.118;5.406;2023-09-30T01:50:46;102610.63;;;19.82;60.51
79221;BME280;72175;52.118;5.406;2023-09-30T01:53:14;102610.63;;;19.82;60.43
79221;BME280;72175;52.118;5.406;2023-09-30T01:55:40;102613.31;;;19.82;60.30
79221;BME280;72175;52.118;5.406;2023-09-30T01:58:07;102608.94;;;19.81;60.52
79221;BME280;72175;52.118;5.406;2023-09-30T02:00:33;102596.34;;;19.82;60.41
79221;BME280;72175;52.118;5.406;2023-09-30T02:03:01;102590.13;;;19.81;60.30
79221;BME280;72175;52.118;5.406;2023-09-30T02:05:28;102589.28;;;19.81;60.38
79221;BME280;72175;52.118;5.406;2023-09-30T02:07:55;102591.97;;;19.81;60.38
79221;BME280;72175;52.118;5.406;2023-09-30T02:10:21;102593.00;;;19.80;60.39
79221;BME280;72175;52.118;5.406;2023-09-30T02:12:48;102601.06;;;19.80;60.33
79221;BME280;72175;52.118;5.406;2023-09-30T02:15:15;102599.38;;;19.79;60.31
79221;BME280;72175;52.118;5.406;2023-09-30T02:17:42;102615.47;;;19.79;60.34
79221;BME280;72175;52.118;5.406;2023-09-30T02:20:12;102608.25;;;19.79;60.50
79221;BME280;72175;52.118;5.406;2023-09-30T02:22:43;102603.03;;;19.78;60.46
79221;BME280;72175;52.118;5.406;2023-09-30T02:25:11;102599.38;;;19.79;60.23
79221;BME280;72175;52.118;5.406;2023-09-30T02:27:40;102602.19;;;19.77;60.18
79221;BME280;72175;52.118;5.406;2023-09-30T02:30:09;102607.44;;;19.79;60.15
79221;BME280;72175;52.118;5.406;2023-09-30T02:32:40;102601.34;;;19.77;60.23
79221;BME280;72175;52.118;5.406;2023-09-30T02:35:08;102601.34;;;19.77;60.15
79221;BME280;72175;52.118;5.406;2023-09-30T02:37:38;102603.34;;;19.75;60.05
79221;BME280;72175;52.118;5.406;2023-09-30T02:40:05;102594.28;;;19.76;60.10
79221;BME280;72175;52.118;5.406;2023-09-30T02:42:37;102594.28;;;19.76;60.07
79221;BME280;72175;52.118;5.406;2023-09-30T02:45:08;102588.09;;;19.75;60.22
79221;BME280;72175;52.118;5.406;2023-09-30T02:47:36;102584.56;;;19.75;60.08
79221;BME280;72175;52.118;5.406;2023-09-30T02:50:05;102586.38;;;19.74;60.28
79221;BME280;72175;52.118;5.406;2023-09-30T02:52:32;102580.19;;;19.74;60.25
79221;BME280;72175;52.118;5.406;2023-09-30T02:54:59;102584.56;;;19.75;60.11
79221;BME280;72175;52.118;5.406;2023-09-30T02:57:26;102590.91;;;19.74;60.24
79221;BME280;72175;52.118;5.406;2023-09-30T02:59:54;102589.22;;;19.73;60.24
79221;BME280;72175;52.118;5.406;2023-09-30T03:02:21;102592.75;;;19.73;60.09
79221;BME280;72175;52.118;5.406;2023-09-30T03:04:48;102587.38;;;19.73;60.12
79221;BME280;72175;52.118;5.406;2023-09-30T03:07:20;102588.38;;;19.72;60.05
79221;BME280;72175;52.118;5.406;2023-09-30T03:09:47;102580.31;;;19.72;60.02
79221;BME280;72175;52.118;5.406;2023-09-30T03:12:14;102592.91;;;19.72;60.09
79221;BME280;72175;52.118;5.406;2023-09-30T03:14:41;102592.06;;;19.71;60.23
79221;BME280;72175;52.118;5.406;2023-09-30T03:17:07;102586.69;;;19.71;60.10
79221;BME280;72175;52.118;5.406;2023-09-30T03:19:38;102590.22;;;19.72;60.10
79221;BME280;72175;52.118;5.406;2023-09-30T03:22:05;102584.84;;;19.72;60.28
79221;BME280;72175;52.118;5.406;2023-09-30T03:24:33;102586.69;;;19.71;59.95
79221;BME280;72175;52.118;5.406;2023-09-30T03:27:01;102582.31;;;19.70;59.95
79221;BME280;72175;52.118;5.406;2023-09-30T03:29:28;102585.84;;;19.71;60.00
79221;BME280;72175;52.118;5.406;2023-09-30T03:31:55;102586.84;;;19.70;60.03
79221;BME280;72175;52.118;5.406;2023-09-30T03:34:21;102576.94;;;19.70;60.00
79221;BME280;72175;52.118;5.406;2023-09-30T03:36:49;102588.69;;;19.69;59.99
79221;BME280;72175;52.118;5.406;2023-09-30T03:39:15;102586.00;;;19.69;60.19
79221;BME280;72175;52.118;5.406;2023-09-30T03:41:43;102589.53;;;19.70;60.11
79221;BME280;72175;52.118;5.406;2023-09-30T03:44:13;102590.53;;;19.69;59.96
79221;BME280;72175;52.118;5.406;2023-09-30T03:46:40;102582.47;;;19.69;59.90
79221;BME280;72175;52.118;5.406;2023-09-30T03:49:07;102584.31;;;19.68;59.91
79221;BME280;72175;52.118;5.406;2023-09-30T03:51:34;102580.78;;;19.68;59.96
79221;BME280;72175;52.118;5.406;2023-09-30T03:54:03;102586.16;;;19.68;59.92
79221;BME280;72175;52.118;5.406;2023-09-30T03:56:30;102588.00;;;19.67;59.95
79221;BME280;72175;52.118;5.406;2023-09-30T03:58:57;102587.00;;;19.68;59.87
79221;BME280;72175;52.118;5.406;2023-09-30T04:01:24;102580.78;;;19.68;59.78
79221;BME280;72175;52.118;5.406;2023-09-30T04:03:53;102587.16;;;19.67;59.89
79221;BME280;72175;52.118;5.406;2023-09-30T04:06:23;102580.94;;;19.66;59.93
79221;BME280;72175;52.118;5.406;2023-09-30T04:08:49;102584.47;;;19.67;59.99
79221;BME280;72175;52.118;5.406;2023-09-30T04:11:17;102591.69;;;19.66;59.86
79221;BME280;72175;52.118;5.406;2023-09-30T04:13:48;102589.00;;;19.66;59.92
79221;BME280;72175;52.118;5.406;2023-09-30T04:16:16;102587.31;;;19.65;59.96
79221;BME280;72175;52.118;5.406;2023-09-30T04:18:45;102592.69;;;19.65;59.91
79221;BME280;72175;52.118;5.406;2023-09-30T04:21:12;102591.84;;;19.65;59.68
79221;BME280;72175;52.118;5.406;2023-09-30T04:23:39;102591.84;;;19.65;59.92
79221;BME280;72175;52.118;5.406;2023-09-30T04:26:08;102596.22;;;19.66;60.00
79221;BME280;72175;52.118;5.406;2023-09-30T04:28:36;102588.16;;;19.66;59.90
79221;BME280;72175;52.118;5.406;2023-09-30T04:31:02;102596.38;;;19.64;59.91
79221;BME280;72175;52.118;5.406;2023-09-30T04:33:29;102597.19;;;19.65;59.70
79221;BME280;72175;52.118;5.406;2023-09-30T04:35:56;102596.38;;;19.64;59.70
79221;BME280;72175;52.118;5.406;2023-09-30T04:38:23;102606.28;;;19.64;59.97
79221;BME280;72175;52.118;5.406;2023-09-30T04:40:50;102608.13;;;19.63;59.83
79221;BME280;72175;52.118;5.406;2023-09-30T04:43:18;102617.88;;;19.64;59.79
79221;BME280;72175;52.118;5.406;2023-09-30T04:45:44;102609.97;;;19.63;59.62
79221;BME280;72175;52.118;5.406;2023-09-30T04:48:11;102610.81;;;19.63;59.74
79221;BME280;72175;52.118;5.406;2023-09-30T04:50:41;102615.34;;;19.63;59.90
79221;BME280;72175;52.118;5.406;2023-09-30T04:53:08;102610.97;;;19.62;59.87
79221;BME280;72175;52.118;5.406;2023-09-30T04:55:35;102607.44;;;19.61;59.66
79221;BME280;72175;52.118;5.406;2023-09-30T04:58:03;102611.97;;;19.61;59.85
79221;BME280;72175;52.118;5.406;2023-09-30T05:00:31;102618.19;;;19.61;59.82
79221;BME280;72175;52.118;5.406;2023-09-30T05:03:08;102617.34;;;19.61;59.85
79221;BME280;72175;52.118;5.406;2023-09-30T05:05:38;102625.38;;;19.61;59.73
79221;BME280;72175;52.118;5.406;2023-09-30T05:08:04;102628.91;;;19.61;59.81
79221;BME280;72175;52.118;5.406;2023-09-30T05:10:32;102627.22;;;19.60;59.74
79221;BME280;72175;52.118;5.406;2023-09-30T05:12:59;102629.91;;;19.60;59.71
79221;BME280;72175;52.118;5.406;2023-09-30T05:15:26;102629.91;;;19.60;59.72
79221;BME280;72175;52.118;5.406;2023-09-30T05:17:55;102620.16;;;19.59;59.61
79221;BME280;72175;52.118;5.406;2023-09-30T05:20:22;102621.84;;;19.60;59.74
79221;BME280;72175;52.118;5.406;2023-09-30T05:22:49;102621.00;;;19.60;59.43
79221;BME280;72175;52.118;5.406;2023-09-30T05:25:17;102620.16;;;19.59;59.76
79221;BME280;72175;52.118;5.406;2023-09-30T05:27:45;102620.16;;;19.59;59.98
79221;BME280;72175;52.118;5.406;2023-09-30T05:30:14;102626.53;;;19.58;59.73
79221;BME280;72175;52.118;5.406;2023-09-30T05:32:42;102632.75;;;19.59;59.72
79221;BME280;72175;52.118;5.406;2023-09-30T05:35:09;102629.22;;;19.58;59.59
79221;BME280;72175;52.118;5.406;2023-09-30T05:37:40;102629.22;;;19.58;59.72
79221;BME280;72175;52.118;5.406;2023-09-30T05:40:07;102630.22;;;19.57;59.69
79221;BME280;72175;52.118;5.406;2023-09-30T05:42:44;102631.06;;;19.58;59.77
79221;BME280;72175;52.118;5.406;2023-09-30T05:45:11;102635.59;;;19.57;59.81
79221;BME280;72175;52.118;5.406;2023-09-30T05:47:42;102638.28;;;19.57;59.58
79221;BME280;72175;52.118;5.406;2023-09-30T05:50:09;102639.13;;;19.58;59.79
79221;BME280;72175;52.118;5.406;2023-09-30T05:52:35;102625.00;;;19.55;59.36
79221;BME280;72175;52.118;5.406;2023-09-30T05:55:04;102617.78;;;19.56;59.55
79221;BME280;72175;52.118;5.406;2023-09-30T05:57:31;102616.94;;;19.55;59.70
79221;BME280;72175;52.118;5.406;2023-09-30T06:00:02;102627.69;;;19.55;59.70
79221;BME280;72175;52.118;5.406;2023-09-30T06:02:49;102629.53;;;19.55;59.84
79221;BME280;72175;52.118;5.406;2023-09-30T06:05:18;102627.84;;;19.54;59.72
79221;BME280;72175;52.118;5.406;2023-09-30T06:07:51;102627.84;;;19.54;59.73
79221;BME280;72175;52.118;5.406;2023-09-30T06:10:18;102629.53;;;19.55;59.55
79221;BME280;72175;52.118;5.406;2023-09-30T06:12:49;102633.22;;;19.54;59.69
79221;BME280;72175;52.118;5.406;2023-09-30T06:15:16;102633.22;;;19.54;59.75
79221;BME280;72175;52.118;5.406;2023-09-30T06:17:49;102634.03;;;19.54;59.64
79221;BME280;72175;52.118;5.406;2023-09-30T06:20:16;102627.00;;;19.53;59.49
79221;BME280;72175;52.118;5.406;2023-09-30T06:22:44;102626.13;;;19.53;59.17
79221;BME280;72175;52.118;5.406;2023-09-30T06:25:16;102623.47;;;19.53;59.43
79221;BME280;72175;52.118;5.406;2023-09-30T06:27:47;102626.13;;;19.53;59.47
79221;BME280;72175;52.118;5.406;2023-09-30T06:30:15;102633.34;;;19.52;59.70
79221;BME280;72175;52.118;5.406;2023-09-30T06:32:48;102634.34;;;19.51;59.47
79221;BME280;72175;52.118;5.406;2023-09-30T06:35:15;102646.78;;;19.52;59.72
79221;BME280;72175;52.118;5.406;2023-09-30T06:37:42;102649.63;;;19.51;59.58
79221;BME280;72175;52.118;5.406;2023-09-30T06:40:10;102650.47;;;19.51;59.61
79221;BME280;72175;52.118;5.406;2023-09-30T06:42:40;102662.03;;;19.52;59.51
79221;BME280;72175;52.118;5.406;2023-09-30T06:45:08;102663.88;;;19.51;59.51
79221;BME280;72175;52.118;5.406;2023-09-30T06:47:37;102663.03;;;19.51;59.56
79221;BME280;72175;52.118;5.406;2023-09-30T06:50:11;102658.66;;;19.50;59.75
79221;BME280;72175;52.118;5.406;2023-09-30T06:52:40;102664.88;;;19.50;59.49
79221;BME280;72175;52.118;5.406;2023-09-30T06:55:11;102668.41;;;19.51;59.72
79221;BME280;72175;52.118;5.406;2023-09-30T06:57:41;102676.47;;;19.51;59.70
79221;BME280;72175;52.118;5.406;2023-09-30T07:00:11;102672.94;;;19.50;59.58
79221;BME280;72175;52.118;5.406;2023-09-30T07:02:41;102674.78;;;19.50;59.57
79221;BME280;72175;52.118;5.406;2023-09-30T07:05:09;102693.56;;;19.50;59.63
79221;BME280;72175;52.118;5.406;2023-09-30T07:07:36;102701.63;;;19.50;59.63
79221;BME280;72175;52.118;5.406;2023-09-30T07:10:04;102696.25;;;19.50;59.76
79221;BME280;72175;52.118;5.406;2023-09-30T07:12:31;102701.63;;;19.50;59.42
79221;BME280;72175;52.118;5.406;2023-09-30T07:14:58;102707.00;;;19.50;59.50
79221;BME280;72175;52.118;5.406;2023-09-30T07:17:25;102701.63;;;19.50;59.84
79221;BME280;72175;52.118;5.406;2023-09-30T07:19:52;102700.78;;;19.49;59.42
79221;BME280;72175;52.118;5.406;2023-09-30T07:22:18;102706.16;;;19.49;59.56
79221;BME280;72175;52.118;5.406;2023-09-30T07:24:59;102703.47;;;19.49;59.39
79221;BME280;72175;52.118;5.406;2023-09-30T07:27:26;102701.63;;;19.50;59.63
79221;BME280;72175;52.118;5.406;2023-09-30T07:29:54;102713.34;;;19.49;59.62
79221;BME280;72175;52.118;5.406;2023-09-30T07:32:21;102712.47;;;19.48;59.77
79221;BME280;72175;52.118;5.406;2023-09-30T07:34:50;102715.16;;;19.48;59.42
79221;BME280;72175;52.118;5.406;2023-09-30T07:37:18;102724.06;;;19.49;59.80
79221;BME280;72175;52.118;5.406;2023-09-30T07:39:47;102718.69;;;19.49;59.65
79221;BME280;72175;52.118;5.406;2023-09-30T07:42:13;102718.69;;;19.49;59.48
79221;BME280;72175;52.118;5.406;2023-09-30T07:44:40;102725.09;;;19.48;59.61
79221;BME280;72175;52.118;5.406;2023-09-30T07:47:07;102722.41;;;19.48;59.84
79221;BME280;72175;52.118;5.406;2023-09-30T07:49:35;102729.44;;;19.49;59.46
79221;BME280;72175;52.118;5.406;2023-09-30T07:52:01;102736.66;;;19.48;59.76
79221;BME280;72175;52.118;5.406;2023-09-30T07:54:28;102733.16;;;19.48;59.70
79221;BME280;72175;52.118;5.406;2023-09-30T07:56:58;102733.16;;;19.48;59.60
79221;BME280;72175;52.118;5.406;2023-09-30T07:59:26;102727.78;;;19.48;59.60
79221;BME280;72175;52.118;5.406;2023-09-30T08:01:53;102724.25;;;19.47;59.59
79221;BME280;72175;52.118;5.406;2023-09-30T08:04:20;102730.47;;;19.48;59.79
79221;BME280;72175;52.118;5.406;2023-09-30T08:06:48;102727.78;;;19.48;59.70
79221;BME280;72175;52.118;5.406;2023-09-30T08:09:15;102725.91;;;19.48;59.54
79221;BME280;72175;52.118;5.406;2023-09-30T08:11:42;102718.88;;;19.47;59.82
79221;BME280;72175;52.118;5.406;2023-09-30T08:14:12;102720.72;;;19.47;59.55
79221;BME280;72175;52.118;5.406;2023-09-30T08:16:39;102715.16;;;19.48;59.62
79221;BME280;72175;52.118;5.406;2023-09-30T08:19:06;102710.97;;;19.46;59.85
79221;BME280;72175;52.118;5.406;2023-09-30T08:21:33;102718.88;;;19.47;59.92
79221;BME280;72175;52.118;5.406;2023-09-30T08:24:02;102716.19;;;19.47;59.65
79221;BME280;72175;52.118;5.406;2023-09-30T08:26:31;102703.75;;;19.46;59.48
79221;BME280;72175;52.118;5.406;2023-09-30T08:28:59;102694.03;;;19.45;59.64
79221;BME280;72175;52.118;5.406;2023-09-30T08:31:26;102702.91;;;19.46;59.83
79221;BME280;72175;52.118;5.406;2023-09-30T08:33:52;102704.59;;;19.47;59.83
79221;BME280;72175;52.118;5.406;2023-09-30T08:36:19;102704.59;;;19.47;59.70
79221;BME280;72175;52.118;5.406;2023-09-30T08:38:45;102704.75;;;19.45;59.93
79221;BME280;72175;52.118;5.406;2023-09-30T08:41:30;102710.97;;;19.46;59.38
79221;BME280;72175;52.118;5.406;2023-09-30T08:44:02;102718.19;;;19.45;59.46
79221;BME280;72175;52.118;5.406;2023-09-30T08:46:34;102726.25;;;19.45;59.72
79221;BME280;72175;52.118;5.406;2023-09-30T08:49:02;102727.09;;;19.46;59.80
79221;BME280;72175;52.118;5.406;2023-09-30T08:51:30;102723.41;;;19.47;59.72
79221;BME280;72175;52.118;5.406;2023-09-30T08:53:58;102718.03;;;19.47;59.84
79221;BME280;72175;52.118;5.406;2023-09-30T08:56:27;102723.41;;;19.47;59.91
79221;BME280;72175;52.118;5.406;2023-09-30T08:58:58;102724.25;;;19.47;59.90
79221;BME280;72175;52.118;5.406;2023-09-30T09:01:29;102726.94;;;19.47;59.81
79221;BME280;72175;52.118;5.406;2023-09-30T09:03:57;102724.25;;;19.47;59.84
79221;BME280;72175;52.118;5.406;2023-09-30T09:06:25;102724.41;;;19.46;59.77
79221;BME280;72175;52.118;5.406;2023-09-30T09:08:53;102728.78;;;19.47;59.90
79221;BME280;72175;52.118;5.406;2023-09-30T09:11:19;102733.16;;;19.48;59.92
79221;BME280;72175;52.118;5.406;2023-09-30T09:13:48;102729.63;;;19.47;59.91
79221;BME280;72175;52.118;5.406;2023-09-30T09:16:23;102741.22;;;19.48;60.18
79221;BME280;72175;52.118;5.406;2023-09-30T09:18:50;102744.72;;;19.48;59.88
79221;BME280;72175;52.118;5.406;2023-09-30T09:21:19;102753.59;;;19.49;60.03
79221;BME280;72175;52.118;5.406;2023-09-30T09:23:49;102756.28;;;19.49;59.90
79221;BME280;72175;52.118;5.406;2023-09-30T09:26:29;102759.84;;;19.49;60.00
79221;BME280;72175;52.118;5.406;2023-09-30T09:29:00;102761.66;;;19.49;60.07
79221;BME280;72175;52.118;5.406;2023-09-30T09:31:28;102767.91;;;19.49;60.29
79221;BME280;72175;52.118;5.406;2023-09-30T09:33:56;102771.44;;;19.50;60.55
79221;BME280;72175;52.118;5.406;2023-09-30T09:36:41;102777.50;;;19.52;60.72
79221;BME280;72175;52.118;5.406;2023-09-30T09:39:08;102779.34;;;19.51;60.61
79221;BME280;72175;52.118;5.406;2023-09-30T09:41:49;102764.09;;;19.52;60.76
79221;BME280;72175;52.118;5.406;2023-09-30T09:44:20;102781.91;;;19.53;60.69
79221;BME280;72175;52.118;5.406;2023-09-30T09:46:49;102770.31;;;19.52;60.74
79221;BME280;72175;52.118;5.406;2023-09-30T09:49:17;102776.53;;;19.53;60.82
79221;BME280;72175;52.118;5.406;2023-09-30T09:51:46;102775.69;;;19.52;61.01
79221;BME280;72175;52.118;5.406;2023-09-30T09:54:14;102780.91;;;19.54;60.94
79221;BME280;72175;52.118;5.406;2023-09-30T09:56:42;102779.06;;;19.54;61.04
79221;BME280;72175;52.118;5.406;2023-09-30T09:59:12;102776.38;;;19.54;61.15
79221;BME280;72175;52.118;5.406;2023-09-30T10:01:40;102779.06;;;19.54;61.29
79221;BME280;72175;52.118;5.406;2023-09-30T10:04:08;102779.06;;;19.54;61.25
79221;BME280;72175;52.118;5.406;2023-09-30T10:06:37;102790.50;;;19.56;61.28
79221;BME280;72175;52.118;5.406;2023-09-30T10:09:09;102788.81;;;19.55;61.43
79221;BME280;72175;52.118;5.406;2023-09-30T10:11:38;102775.22;;;19.57;61.41
79221;BME280;72175;52.118;5.406;2023-09-30T10:14:06;102776.94;;;19.58;61.18
79221;BME280;72175;52.118;5.406;2023-09-30T10:19:17;102768.72;;;19.60;61.19
79221;BME280;72175;52.118;5.406;2023-09-30T10:24:46;102748.09;;;19.60;60.92
79221;BME280;72175;52.118;5.406;2023-09-30T10:40:57;102738.56;;;19.66;61.00
79221;BME280;72175;52.118;5.406;2023-09-30T10:46:00;102743.94;;;19.66;60.96
79221;BME280;72175;52.118;5.406;2023-09-30T10:51:20;102740.25;;;19.67;60.85
79221;BME280;72175;52.118;5.406;2023-09-30T10:53:52;102744.78;;;19.66;61.03
79221;BME280;72175;52.118;5.406;2023-09-30T10:56:23;102738.41;;;19.67;60.86
79221;BME280;72175;52.118;5.406;2023-09-30T10:58:52;102747.31;;;19.68;60.68
79221;BME280;72175;52.118;5.406;2023-09-30T11:01:23;102738.41;;;19.67;60.65
79221;BME280;72175;52.118;5.406;2023-09-30T11:03:58;102741.09;;;19.67;60.80
79221;BME280;72175;52.118;5.406;2023-09-30T11:06:25;102741.94;;;19.68;60.87
79221;BME280;72175;52.118;5.406;2023-09-30T11:09:00;102731.19;;;19.68;60.68
79221;BME280;72175;52.118;5.406;2023-09-30T11:14:00;102728.34;;;19.69;60.84
79221;BME280;72175;52.118;5.406;2023-09-30T11:16:27;102730.19;;;19.69;60.73
79221;BME280;72175;52.118;5.406;2023-09-30T11:18:54;102733.72;;;19.69;60.77
79221;BME280;72175;52.118;5.406;2023-09-30T11:21:22;102736.41;;;19.69;61.05
79221;BME280;72175;52.118;5.406;2023-09-30T11:23:49;102727.50;;;19.69;60.82
79221;BME280;72175;52.118;5.406;2023-09-30T11:26:16;102731.91;;;19.70;60.45
79221;BME280;72175;52.118;5.406;2023-09-30T11:28:55;102724.81;;;19.69;60.61
79221;BME280;72175;52.118;5.406;2023-09-30T11:31:23;102721.28;;;19.68;60.73
79221;BME280;72175;52.118;5.406;2023-09-30T11:33:51;102724.81;;;19.69;60.60
79221;BME280;72175;52.118;5.406;2023-09-30T11:36:20;102728.34;;;19.69;60.46
79221;BME280;72175;52.118;5.406;2023-09-30T11:38:49;102720.31;;;19.69;60.48
79221;BME280;72175;52.118;5.406;2023-09-30T11:41:19;102707.88;;;19.68;60.62
79221;BME280;72175;52.118;5.406;2023-09-30T11:46:31;102705.19;;;19.68;60.57
79221;BME280;72175;52.118;5.406;2023-09-30T11:49:02;102707.88;;;19.68;60.83
79221;BME280;72175;52.118;5.406;2023-09-30T11:51:29;102719.47;;;19.69;60.70
79221;BME280;72175;52.118;5.406;2023-09-30T11:54:00;102728.50;;;19.68;60.80
79221;BME280;72175;52.118;5.406;2023-09-30T11:56:27;102731.03;;;19.69;60.58
79221;BME280;72175;52.118;5.406;2023-09-30T11:58:56;102723.97;;;19.68;60.95
79221;BME280;72175;52.118;5.406;2023-09-30T12:01:24;102728.50;;;19.68;60.76
79221;BME280;72175;52.118;5.406;2023-09-30T12:03:52;102723.97;;;19.68;60.68
79221;BME280;72175;52.118;5.406;2023-09-30T12:06:24;102714.22;;;19.67;60.80
79221;BME280;72175;52.118;5.406;2023-09-30T12:08:51;102707.88;;;19.68;60.73
79221;BME280;72175;52.118;5.406;2023-09-30T12:11:18;102701.66;;;19.68;60.52
79221;BME280;72175;52.118;5.406;2023-09-30T12:13:46;102698.97;;;19.68;60.68
79221;BME280;72175;52.118;5.406;2023-09-30T12:16:16;102691.91;;;19.67;60.38
79221;BME280;72175;52.118;5.406;2023-09-30T12:18:45;102690.06;;;19.67;60.67
79221;BME280;72175;52.118;5.406;2023-09-30T12:21:12;102697.13;;;19.68;60.86
79221;BME280;72175;52.118;5.406;2023-09-30T12:23:46;102685.53;;;19.68;60.84
79221;BME280;72175;52.118;5.406;2023-09-30T12:26:15;102682.00;;;19.67;60.60
79221;BME280;72175;52.118;5.406;2023-09-30T12:28:46;102682.00;;;19.67;60.62
79221;BME280;72175;52.118;5.406;2023-09-30T12:31:15;102677.47;;;19.68;60.78
79221;BME280;72175;52.118;5.406;2023-09-30T12:33:43;102674.78;;;19.68;60.58
79221;BME280;72175;52.118;5.406;2023-09-30T12:36:09;102680.16;;;19.68;60.73
79221;BME280;72175;52.118;5.406;2023-09-30T12:38:39;102677.47;;;19.68;60.67
79221;BME280;72175;52.118;5.406;2023-09-30T12:41:06;102673.94;;;19.67;60.60
79221;BME280;72175;52.118;5.406;2023-09-30T12:43:34;102680.16;;;19.68;60.64
79221;BME280;72175;52.118;5.406;2023-09-30T12:46:01;102676.47;;;19.69;60.53
79221;BME280;72175;52.118;5.406;2023-09-30T12:48:27;102676.63;;;19.67;60.41
79221;BME280;72175;52.118;5.406;2023-09-30T12:50:54;102675.78;;;19.67;60.46
79221;BME280;72175;52.118;5.406;2023-09-30T12:53:21;102673.94;;;19.67;60.55
79221;BME280;72175;52.118;5.406;2023-09-30T12:55:48;102684.69;;;19.67;60.57
79221;BME280;72175;52.118;5.406;2023-09-30T12:58:14;102682.00;;;19.67;60.77
79221;BME280;72175;52.118;5.406;2023-09-30T13:00:41;102679.31;;;19.67;60.55
79221;BME280;72175;52.118;5.406;2023-09-30T13:03:08;102686.38;;;19.68;60.47
79221;BME280;72175;52.118;5.406;2023-09-30T13:05:39;102677.47;;;19.68;60.56
79221;BME280;72175;52.118;5.406;2023-09-30T13:08:09;102681.16;;;19.67;60.73
79221;BME280;72175;52.118;5.406;2023-09-30T13:10:35;102679.31;;;19.67;60.71
79221;BME280;72175;52.118;5.406;2023-09-30T13:13:04;102681.00;;;19.68;60.60
79221;BME280;72175;52.118;5.406;2023-09-30T13:15:32;102673.94;;;19.67;60.62
79221;BME280;72175;52.118;5.406;2023-09-30T13:18:02;102678.31;;;19.68;60.38
79221;BME280;72175;52.118;5.406;2023-09-30T13:20:31;102679.31;;;19.67;60.69
79221;BME280;72175;52.118;5.406;2023-09-30T13:22:57;102671.25;;;19.67;60.54
79221;BME280;72175;52.118;5.406;2023-09-30T13:25:24;102668.56;;;19.67;60.61
79221;BME280;72175;52.118;5.406;2023-09-30T13:27:53;102659.66;;;19.67;60.67